Terminal Aerodrome Forecast
Issued by NWS

Home | Current Version | Previous Version | Text Only | Print | Product List | Glossary On
Versions: 1 2 3 4 5 6 7 8 9 10 11 12 13 14
000
FTUS42 TJSJ 230500
TAFKPK
TAF
TKPK 230527Z 2306/2406 06008KT P6SM SCT017
     FM231330 08010KT P6SM FEW022
     FM232300 06005KT P6SM FEW022
      AMD NOT SKED TIL 231100=

USA.gov is the U.S. government's official web portal to all federal, state and local government web resources and services.